sensor_id;sensor_type;location;lat;lon;timestamp;P1;durP1;ratioP1;P2;durP2;ratioP2
21299;SDS011;10809;49.476;11.016;2022-08-18T00:01:44;4.38;;;2.50;;
21299;SDS011;10809;49.476;11.016;2022-08-18T00:04:17;5.38;;;2.90;;
21299;SDS011;10809;49.476;11.016;2022-08-18T00:06:47;2.50;;;2.22;;
21299;SDS011;10809;49.476;11.016;2022-08-18T00:09:18;2.65;;;2.45;;
21299;SDS011;10809;49.476;11.016;2022-08-18T00:11:48;4.28;;;2.17;;
21299;SDS011;10809;49.476;11.016;2022-08-18T00:14:19;3.55;;;1.92;;
21299;SDS011;10809;49.476;11.016;2022-08-18T00:16:51;2.30;;;2.10;;
21299;SDS011;10809;49.476;11.016;2022-08-18T00:19:23;6.22;;;2.20;;
21299;SDS011;10809;49.476;11.016;2022-08-18T00:21:56;1.85;;;1.75;;
21299;SDS011;10809;49.476;11.016;2022-08-18T00:24:27;5.25;;;2.17;;
21299;SDS011;10809;49.476;11.016;2022-08-18T00:26:58;2.13;;;1.92;;
21299;SDS011;10809;49.476;11.016;2022-08-18T00:29:28;4.13;;;2.08;;
21299;SDS011;10809;49.476;11.016;2022-08-18T00:31:58;1.95;;;1.83;;
21299;SDS011;10809;49.476;11.016;2022-08-18T00:34:29;2.15;;;1.88;;
21299;SDS011;10809;49.476;11.016;2022-08-18T00:36:59;4.57;;;2.17;;
21299;SDS011;10809;49.476;11.016;2022-08-18T00:39:29;2.33;;;1.65;;
21299;SDS011;10809;49.476;11.016;2022-08-18T00:42:19;1.58;;;1.48;;
21299;SDS011;10809;49.476;11.016;2022-08-18T00:44:52;2.33;;;1.85;;
21299;SDS011;10809;49.476;11.016;2022-08-18T00:47:23;1.92;;;1.40;;
21299;SDS011;10809;49.476;11.016;2022-08-18T00:49:57;2.83;;;1.90;;
21299;SDS011;10809;49.476;11.016;2022-08-18T00:52:27;1.70;;;1.60;;
21299;SDS011;10809;49.476;11.016;2022-08-18T00:54:58;5.15;;;1.77;;
21299;SDS011;10809;49.476;11.016;2022-08-18T00:57:31;3.90;;;2.13;;
21299;SDS011;10809;49.476;11.016;2022-08-18T01:00:04;3.60;;;1.60;;
21299;SDS011;10809;49.476;11.016;2022-08-18T01:02:42;2.33;;;1.73;;
21299;SDS011;10809;49.476;11.016;2022-08-18T01:05:18;2.20;;;2.00;;
21299;SDS011;10809;49.476;11.016;2022-08-18T01:07:54;1.95;;;1.85;;
21299;SDS011;10809;49.476;11.016;2022-08-18T01:10:25;4.68;;;2.30;;
21299;SDS011;10809;49.476;11.016;2022-08-18T01:12:56;3.17;;;2.50;;
21299;SDS011;10809;49.476;11.016;2022-08-18T01:15:28;2.75;;;2.10;;
21299;SDS011;10809;49.476;11.016;2022-08-18T01:17:59;2.00;;;1.80;;
21299;SDS011;10809;49.476;11.016;2022-08-18T01:21:04;5.93;;;2.50;;
21299;SDS011;10809;49.476;11.016;2022-08-18T01:24:01;3.45;;;2.03;;
21299;SDS011;10809;49.476;11.016;2022-08-18T01:26:36;3.28;;;2.30;;
21299;SDS011;10809;49.476;11.016;2022-08-18T01:29:09;3.15;;;2.10;;
21299;SDS011;10809;49.476;11.016;2022-08-18T01:31:41;2.75;;;2.50;;
21299;SDS011;10809;49.476;11.016;2022-08-18T01:34:25;2.20;;;2.10;;
21299;SDS011;10809;49.476;11.016;2022-08-18T01:36:57;3.72;;;2.85;;
21299;SDS011;10809;49.476;11.016;2022-08-18T01:39:28;3.22;;;2.72;;
21299;SDS011;10809;49.476;11.016;2022-08-18T01:41:58;2.60;;;2.20;;
21299;SDS011;10809;49.476;11.016;2022-08-18T01:44:31;3.83;;;2.10;;
21299;SDS011;10809;49.476;11.016;2022-08-18T01:47:02;6.90;;;2.97;;
21299;SDS011;10809;49.476;11.016;2022-08-18T01:49:33;2.58;;;2.38;;
21299;SDS011;10809;49.476;11.016;2022-08-18T01:52:03;3.85;;;3.05;;
21299;SDS011;10809;49.476;11.016;2022-08-18T01:54:36;6.30;;;3.22;;
21299;SDS011;10809;49.476;11.016;2022-08-18T01:57:07;4.10;;;2.40;;
21299;SDS011;10809;49.476;11.016;2022-08-18T01:59:42;6.13;;;3.25;;
21299;SDS011;10809;49.476;11.016;2022-08-18T02:02:19;4.18;;;2.75;;
21299;SDS011;10809;49.476;11.016;2022-08-18T02:04:54;5.72;;;3.47;;
21299;SDS011;10809;49.476;11.016;2022-08-18T02:07:30;3.33;;;3.03;;
21299;SDS011;10809;49.476;11.016;2022-08-18T02:10:00;7.97;;;2.67;;
21299;SDS011;10809;49.476;11.016;2022-08-18T02:12:31;3.30;;;3.00;;
21299;SDS011;10809;49.476;11.016;2022-08-18T02:15:03;5.20;;;3.60;;
21299;SDS011;10809;49.476;11.016;2022-08-18T02:17:35;3.38;;;2.78;;
21299;SDS011;10809;49.476;11.016;2022-08-18T02:20:10;2.75;;;2.47;;
21299;SDS011;10809;49.476;11.016;2022-08-18T02:22:43;5.22;;;2.78;;
21299;SDS011;10809;49.476;11.016;2022-08-18T02:25:15;3.80;;;3.20;;
21299;SDS011;10809;49.476;11.016;2022-08-18T02:27:46;3.05;;;2.70;;
21299;SDS011;10809;49.476;11.016;2022-08-18T02:30:17;5.00;;;3.05;;
21299;SDS011;10809;49.476;11.016;2022-08-18T02:32:48;3.17;;;2.88;;
21299;SDS011;10809;49.476;11.016;2022-08-18T02:35:18;5.63;;;3.28;;
21299;SDS011;10809;49.476;11.016;2022-08-18T02:37:49;3.83;;;3.45;;
21299;SDS011;10809;49.476;11.016;2022-08-18T02:40:19;5.38;;;2.35;;
21299;SDS011;10809;49.476;11.016;2022-08-18T02:42:49;4.13;;;3.38;;
21299;SDS011;10809;49.476;11.016;2022-08-18T02:45:22;3.42;;;3.00;;
21299;SDS011;10809;49.476;11.016;2022-08-18T02:47:53;3.97;;;3.10;;
21299;SDS011;10809;49.476;11.016;2022-08-18T02:50:25;4.32;;;3.60;;
21299;SDS011;10809;49.476;11.016;2022-08-18T02:52:56;3.53;;;3.17;;
21299;SDS011;10809;49.476;11.016;2022-08-18T02:55:29;3.75;;;2.97;;
21299;SDS011;10809;49.476;11.016;2022-08-18T02:58:00;4.13;;;3.70;;
21299;SDS011;10809;49.476;11.016;2022-08-18T03:00:31;3.88;;;3.35;;
21299;SDS011;10809;49.476;11.016;2022-08-18T03:03:01;3.05;;;2.85;;
21299;SDS011;10809;49.476;11.016;2022-08-18T03:05:32;3.55;;;3.17;;
21299;SDS011;10809;49.476;11.016;2022-08-18T03:08:02;3.10;;;2.90;;
21299;SDS011;10809;49.476;11.016;2022-08-18T03:10:33;4.82;;;3.22;;
21299;SDS011;10809;49.476;11.016;2022-08-18T03:13:03;9.52;;;3.50;;
21299;SDS011;10809;49.476;11.016;2022-08-18T03:15:33;5.57;;;3.55;;
21299;SDS011;10809;49.476;11.016;2022-08-18T03:18:04;3.33;;;3.03;;
21299;SDS011;10809;49.476;11.016;2022-08-18T03:20:34;4.35;;;3.95;;
21299;SDS011;10809;49.476;11.016;2022-08-18T03:23:05;3.78;;;3.28;;
21299;SDS011;10809;49.476;11.016;2022-08-18T03:25:35;3.70;;;3.22;;
21299;SDS011;10809;49.476;11.016;2022-08-18T03:28:12;4.55;;;3.42;;
21299;SDS011;10809;49.476;11.016;2022-08-18T03:30:44;5.13;;;3.80;;
21299;SDS011;10809;49.476;11.016;2022-08-18T03:33:14;3.72;;;3.42;;
21299;SDS011;10809;49.476;11.016;2022-08-18T03:35:45;4.57;;;3.13;;
21299;SDS011;10809;49.476;11.016;2022-08-18T03:38:15;5.18;;;3.50;;
21299;SDS011;10809;49.476;11.016;2022-08-18T03:40:52;6.25;;;3.78;;
21299;SDS011;10809;49.476;11.016;2022-08-18T03:43:22;5.07;;;3.95;;
21299;SDS011;10809;49.476;11.016;2022-08-18T03:45:53;7.47;;;3.88;;
21299;SDS011;10809;49.476;11.016;2022-08-18T03:48:24;3.58;;;3.30;;
21299;SDS011;10809;49.476;11.016;2022-08-18T03:50:54;3.97;;;3.58;;
21299;SDS011;10809;49.476;11.016;2022-08-18T03:53:31;3.90;;;3.65;;
21299;SDS011;10809;49.476;11.016;2022-08-18T03:56:06;3.97;;;3.58;;
21299;SDS011;10809;49.476;11.016;2022-08-18T03:58:54;4.28;;;3.88;;
21299;SDS011;10809;49.476;11.016;2022-08-18T04:01:28;4.55;;;3.97;;
21299;SDS011;10809;49.476;11.016;2022-08-18T04:04:02;4.30;;;3.92;;
21299;SDS011;10809;49.476;11.016;2022-08-18T04:06:39;3.78;;;3.47;;
21299;SDS011;10809;49.476;11.016;2022-08-18T04:09:13;4.32;;;3.55;;
21299;SDS011;10809;49.476;11.016;2022-08-18T04:11:44;8.10;;;4.57;;
21299;SDS011;10809;49.476;11.016;2022-08-18T04:14:19;4.85;;;3.92;;
21299;SDS011;10809;49.476;11.016;2022-08-18T04:16:53;4.78;;;4.28;;
21299;SDS011;10809;49.476;11.016;2022-08-18T04:19:23;5.63;;;4.32;;
21299;SDS011;10809;49.476;11.016;2022-08-18T04:21:55;4.05;;;3.65;;
21299;SDS011;10809;49.476;11.016;2022-08-18T04:24:28;3.90;;;3.47;;
21299;SDS011;10809;49.476;11.016;2022-08-18T04:27:00;8.15;;;4.10;;
21299;SDS011;10809;49.476;11.016;2022-08-18T04:29:31;6.38;;;4.40;;
21299;SDS011;10809;49.476;11.016;2022-08-18T04:32:02;4.90;;;4.38;;
21299;SDS011;10809;49.476;11.016;2022-08-18T04:34:35;6.88;;;3.88;;
21299;SDS011;10809;49.476;11.016;2022-08-18T04:37:06;4.00;;;3.70;;
21299;SDS011;10809;49.476;11.016;2022-08-18T04:39:37;4.03;;;3.72;;
21299;SDS011;10809;49.476;11.016;2022-08-18T04:42:08;3.95;;;3.58;;
21299;SDS011;10809;49.476;11.016;2022-08-18T04:44:39;5.10;;;4.60;;
21299;SDS011;10809;49.476;11.016;2022-08-18T04:47:09;4.10;;;3.67;;
21299;SDS011;10809;49.476;11.016;2022-08-18T04:49:42;4.80;;;4.30;;
21299;SDS011;10809;49.476;11.016;2022-08-18T04:52:13;4.95;;;4.25;;
21299;SDS011;10809;49.476;11.016;2022-08-18T04:55:03;4.10;;;3.80;;
21299;SDS011;10809;49.476;11.016;2022-08-18T04:57:33;5.28;;;4.13;;
21299;SDS011;10809;49.476;11.016;2022-08-18T05:00:04;4.57;;;4.18;;
21299;SDS011;10809;49.476;11.016;2022-08-18T05:02:35;4.72;;;4.15;;
21299;SDS011;10809;49.476;11.016;2022-08-18T05:05:06;5.45;;;4.47;;
21299;SDS011;10809;49.476;11.016;2022-08-18T05:07:41;4.70;;;4.28;;
21299;SDS011;10809;49.476;11.016;2022-08-18T05:10:13;6.57;;;4.97;;
21299;SDS011;10809;49.476;11.016;2022-08-18T05:12:46;4.82;;;4.32;;
21299;SDS011;10809;49.476;11.016;2022-08-18T05:15:17;5.93;;;5.28;;
21299;SDS011;10809;49.476;11.016;2022-08-18T05:17:48;8.13;;;4.70;;
21299;SDS011;10809;49.476;11.016;2022-08-18T05:20:18;4.90;;;4.40;;
21299;SDS011;10809;49.476;11.016;2022-08-18T05:22:49;5.35;;;4.85;;
21299;SDS011;10809;49.476;11.016;2022-08-18T05:25:19;5.28;;;4.80;;
21299;SDS011;10809;49.476;11.016;2022-08-18T05:27:49;6.13;;;5.57;;
21299;SDS011;10809;49.476;11.016;2022-08-18T05:30:20;5.10;;;4.65;;
21299;SDS011;10809;49.476;11.016;2022-08-18T05:32:50;6.90;;;4.45;;
21299;SDS011;10809;49.476;11.016;2022-08-18T05:35:22;5.32;;;4.80;;
21299;SDS011;10809;49.476;11.016;2022-08-18T05:40:44;10.35;;;6.25;;
21299;SDS011;10809;49.476;11.016;2022-08-18T05:43:15;7.05;;;5.95;;
21299;SDS011;10809;49.476;11.016;2022-08-18T05:45:46;5.85;;;5.18;;
21299;SDS011;10809;49.476;11.016;2022-08-18T05:48:19;6.80;;;5.65;;
21299;SDS011;10809;49.476;11.016;2022-08-18T05:50:49;4.82;;;4.32;;
21299;SDS011;10809;49.476;11.016;2022-08-18T05:53:20;5.30;;;4.88;;
21299;SDS011;10809;49.476;11.016;2022-08-18T05:56:11;4.82;;;4.35;;
21299;SDS011;10809;49.476;11.016;2022-08-18T05:59:01;5.10;;;4.68;;
21299;SDS011;10809;49.476;11.016;2022-08-18T06:01:32;6.18;;;5.32;;
21299;SDS011;10809;49.476;11.016;2022-08-18T06:04:21;5.40;;;4.45;;
21299;SDS011;10809;49.476;11.016;2022-08-18T06:06:56;4.80;;;4.30;;
21299;SDS011;10809;49.476;11.016;2022-08-18T06:09:35;9.88;;;5.07;;
21299;SDS011;10809;49.476;11.016;2022-08-18T06:12:26;5.30;;;4.75;;
21299;SDS011;10809;49.476;11.016;2022-08-18T06:15:11;5.28;;;4.78;;
21299;SDS011;10809;49.476;11.016;2022-08-18T06:18:06;4.30;;;4.00;;
21299;SDS011;10809;49.476;11.016;2022-08-18T06:20:52;5.03;;;4.47;;
21299;SDS011;10809;49.476;11.016;2022-08-18T06:35:25;7.38;;;4.57;;
21299;SDS011;10809;49.476;11.016;2022-08-18T06:41:11;4.97;;;4.45;;
21299;SDS011;10809;49.476;11.016;2022-08-18T06:44:07;5.35;;;4.85;;
21299;SDS011;10809;49.476;11.016;2022-08-18T06:47:00;4.72;;;4.32;;
21299;SDS011;10809;49.476;11.016;2022-08-18T06:49:42;5.55;;;4.68;;
21299;SDS011;10809;49.476;11.016;2022-08-18T06:52:27;5.28;;;4.78;;
21299;SDS011;10809;49.476;11.016;2022-08-18T06:55:14;5.65;;;4.40;;
21299;SDS011;10809;49.476;11.016;2022-08-18T06:57:57;4.55;;;4.15;;
21299;SDS011;10809;49.476;11.016;2022-08-18T07:00:29;4.32;;;3.92;;
21299;SDS011;10809;49.476;11.016;2022-08-18T07:03:13;6.63;;;4.28;;
21299;SDS011;10809;49.476;11.016;2022-08-18T07:06:09;9.48;;;4.45;;
21299;SDS011;10809;49.476;11.016;2022-08-18T07:08:43;4.63;;;4.22;;
21299;SDS011;10809;49.476;11.016;2022-08-18T07:15:07;6.95;;;4.30;;
21299;SDS011;10809;49.476;11.016;2022-08-18T07:17:41;5.35;;;4.95;;
21299;SDS011;10809;49.476;11.016;2022-08-18T07:20:19;4.72;;;4.32;;
21299;SDS011;10809;49.476;11.016;2022-08-18T07:23:03;6.03;;;5.43;;
21299;SDS011;10809;49.476;11.016;2022-08-18T07:25:41;5.45;;;5.00;;
21299;SDS011;10809;49.476;11.016;2022-08-18T07:28:27;4.82;;;4.53;;
21299;SDS011;10809;49.476;11.016;2022-08-18T07:33:42;4.55;;;4.15;;
21299;SDS011;10809;49.476;11.016;2022-08-18T07:36:20;4.88;;;4.05;;
21299;SDS011;10809;49.476;11.016;2022-08-18T07:38:55;4.40;;;4.00;;
21299;SDS011;10809;49.476;11.016;2022-08-18T07:41:48;4.78;;;4.38;;
21299;SDS011;10809;49.476;11.016;2022-08-18T07:44:31;4.30;;;3.95;;
21299;SDS011;10809;49.476;11.016;2022-08-18T07:47:23;5.10;;;4.68;;
21299;SDS011;10809;49.476;11.016;2022-08-18T07:49:54;5.28;;;4.80;;
21299;SDS011;10809;49.476;11.016;2022-08-18T07:52:28;5.05;;;4.65;;
21299;SDS011;10809;49.476;11.016;2022-08-18T07:55:19;4.65;;;4.25;;
21299;SDS011;10809;49.476;11.016;2022-08-18T08:01:03;5.25;;;4.85;;
21299;SDS011;10809;49.476;11.016;2022-08-18T08:06:43;4.68;;;4.28;;
21299;SDS011;10809;49.476;11.016;2022-08-18T08:09:23;4.72;;;4.25;;
21299;SDS011;10809;49.476;11.016;2022-08-18T08:12:28;5.20;;;4.13;;
21299;SDS011;10809;49.476;11.016;2022-08-18T08:18:14;7.28;;;5.88;;
21299;SDS011;10809;49.476;11.016;2022-08-18T08:21:08;4.93;;;4.53;;
21299;SDS011;10809;49.476;11.016;2022-08-18T08:23:50;7.95;;;5.63;;
21299;SDS011;10809;49.476;11.016;2022-08-18T08:32:33;5.43;;;4.93;;
21299;SDS011;10809;49.476;11.016;2022-08-18T08:35:39;6.03;;;5.00;;
21299;SDS011;10809;49.476;11.016;2022-08-18T08:38:19;9.27;;;6.85;;
21299;SDS011;10809;49.476;11.016;2022-08-18T08:41:07;9.40;;;7.65;;
21299;SDS011;10809;49.476;11.016;2022-08-18T08:46:45;7.18;;;5.90;;
21299;SDS011;10809;49.476;11.016;2022-08-18T08:49:21;9.30;;;7.38;;
21299;SDS011;10809;49.476;11.016;2022-08-18T08:52:02;4.97;;;4.57;;
21299;SDS011;10809;49.476;11.016;2022-08-18T08:54:41;6.78;;;4.57;;
21299;SDS011;10809;49.476;11.016;2022-08-18T08:57:15;5.63;;;5.13;;
21299;SDS011;10809;49.476;11.016;2022-08-18T08:59:48;6.13;;;5.20;;
21299;SDS011;10809;49.476;11.016;2022-08-18T09:05:17;5.53;;;5.03;;
21299;SDS011;10809;49.476;11.016;2022-08-18T09:16:13;6.35;;;4.95;;
21299;SDS011;10809;49.476;11.016;2022-08-18T09:19:12;5.53;;;5.13;;
21299;SDS011;10809;49.476;11.016;2022-08-18T09:25:09;7.13;;;5.78;;
21299;SDS011;10809;49.476;11.016;2022-08-18T09:39:21;5.43;;;4.18;;
21299;SDS011;10809;49.476;11.016;2022-08-18T09:42:27;4.18;;;3.80;;
21299;SDS011;10809;49.476;11.016;2022-08-18T09:45:04;5.13;;;4.63;;
21299;SDS011;10809;49.476;11.016;2022-08-18T09:57:46;4.63;;;4.22;;
21299;SDS011;10809;49.476;11.016;2022-08-18T10:06:44;6.05;;;4.18;;
21299;SDS011;10809;49.476;11.016;2022-08-18T10:09:24;4.13;;;3.83;;
21299;SDS011;10809;49.476;11.016;2022-08-18T10:15:12;3.80;;;3.50;;
21299;SDS011;10809;49.476;11.016;2022-08-18T10:29:02;4.10;;;3.80;;
21299;SDS011;10809;49.476;11.016;2022-08-18T10:34:45;3.30;;;3.00;;
21299;SDS011;10809;49.476;11.016;2022-08-18T10:37:35;3.30;;;2.95;;
21299;SDS011;10809;49.476;11.016;2022-08-18T10:40:15;4.78;;;4.38;;
21299;SDS011;10809;49.476;11.016;2022-08-18T10:45:45;6.40;;;3.55;;
21299;SDS011;10809;49.476;11.016;2022-08-18T10:50:57;5.10;;;4.55;;
21299;SDS011;10809;49.476;11.016;2022-08-18T10:56:42;6.15;;;5.03;;
21299;SDS011;10809;49.476;11.016;2022-08-18T10:59:19;4.38;;;4.03;;
21299;SDS011;10809;49.476;11.016;2022-08-18T11:07:20;6.15;;;4.40;;
21299;SDS011;10809;49.476;11.016;2022-08-18T11:09:55;4.70;;;4.30;;
21299;SDS011;10809;49.476;11.016;2022-08-18T11:12:48;4.22;;;3.92;;
21299;SDS011;10809;49.476;11.016;2022-08-18T11:15:35;5.90;;;5.30;;
21299;SDS011;10809;49.476;11.016;2022-08-18T11:24:33;5.32;;;4.28;;
21299;SDS011;10809;49.476;11.016;2022-08-18T11:27:06;5.68;;;4.53;;
21299;SDS011;10809;49.476;11.016;2022-08-18T11:29:47;4.13;;;3.72;;
21299;SDS011;10809;49.476;11.016;2022-08-18T11:35:05;8.10;;;3.83;;
21299;SDS011;10809;49.476;11.016;2022-08-18T11:42:56;4.70;;;3.90;;
21299;SDS011;10809;49.476;11.016;2022-08-18T11:45:57;4.93;;;4.45;;
21299;SDS011;10809;49.476;11.016;2022-08-18T11:48:48;5.18;;;4.68;;
21299;SDS011;10809;49.476;11.016;2022-08-18T11:51:21;4.75;;;4.28;;
21299;SDS011;10809;49.476;11.016;2022-08-18T11:54:02;5.43;;;3.47;;
21299;SDS011;10809;49.476;11.016;2022-08-18T11:56:51;4.80;;;3.63;;
21299;SDS011;10809;49.476;11.016;2022-08-18T12:01:55;4.72;;;4.30;;
21299;SDS011;10809;49.476;11.016;2022-08-18T12:04:28;4.10;;;3.80;;
21299;SDS011;10809;49.476;11.016;2022-08-18T12:07:10;3.60;;;3.30;;
21299;SDS011;10809;49.476;11.016;2022-08-18T12:10:26;3.88;;;3.47;;
21299;SDS011;10809;49.476;11.016;2022-08-18T12:12:44;4.10;;;3.80;;
21299;SDS011;10809;49.476;11.016;2022-08-18T12:17:47;4.18;;;3.78;;
21299;SDS011;10809;49.476;11.016;2022-08-18T12:20:17;3.60;;;3.40;;
21299;SDS011;10809;49.476;11.016;2022-08-18T12:22:48;4.13;;;3.85;;
21299;SDS011;10809;49.476;11.016;2022-08-18T12:25:20;4.15;;;3.70;;
21299;SDS011;10809;49.476;11.016;2022-08-18T12:27:50;4.70;;;4.15;;
21299;SDS011;10809;49.476;11.016;2022-08-18T12:30:21;4.55;;;4.07;;
21299;SDS011;10809;49.476;11.016;2022-08-18T12:32:51;4.15;;;3.85;;
21299;SDS011;10809;49.476;11.016;2022-08-18T12:35:22;4.00;;;3.70;;
21299;SDS011;10809;49.476;11.016;2022-08-18T12:37:52;4.28;;;3.97;;
21299;SDS011;10809;49.476;11.016;2022-08-18T12:40:22;4.68;;;4.22;;
21299;SDS011;10809;49.476;11.016;2022-08-18T12:42:53;4.35;;;4.05;;
21299;SDS011;10809;49.476;11.016;2022-08-18T12:45:23;4.43;;;4.03;;
21299;SDS011;10809;49.476;11.016;2022-08-18T12:47:55;4.47;;;4.05;;
21299;SDS011;10809;49.476;11.016;2022-08-18T12:50:25;5.25;;;4.05;;
21299;SDS011;10809;49.476;11.016;2022-08-18T12:52:56;8.32;;;4.35;;
21299;SDS011;10809;49.476;11.016;2022-08-18T12:55:27;6.75;;;3.75;;
21299;SDS011;10809;49.476;11.016;2022-08-18T12:58:00;4.22;;;3.78;;
21299;SDS011;10809;49.476;11.016;2022-08-18T13:00:30;4.25;;;3.95;;
21299;SDS011;10809;49.476;11.016;2022-08-18T13:03:01;4.07;;;3.70;;
21299;SDS011;10809;49.476;11.016;2022-08-18T13:05:32;4.90;;;4.38;;
21299;SDS011;10809;49.476;11.016;2022-08-18T13:08:14;4.43;;;4.13;;
21299;SDS011;10809;49.476;11.016;2022-08-18T13:10:49;4.53;;;4.00;;
21299;SDS011;10809;49.476;11.016;2022-08-18T13:13:20;4.43;;;4.03;;
21299;SDS011;10809;49.476;11.016;2022-08-18T13:15:51;4.60;;;4.20;;
21299;SDS011;10809;49.476;11.016;2022-08-18T13:18:23;4.97;;;4.47;;
21299;SDS011;10809;49.476;11.016;2022-08-18T13:20:58;3.90;;;3.50;;
21299;SDS011;10809;49.476;11.016;2022-08-18T13:23:29;6.55;;;4.60;;
21299;SDS011;10809;49.476;11.016;2022-08-18T13:26:01;3.70;;;3.22;;
21299;SDS011;10809;49.476;11.016;2022-08-18T13:28:34;4.13;;;3.70;;
21299;SDS011;10809;49.476;11.016;2022-08-18T13:31:05;4.20;;;3.30;;
21299;SDS011;10809;49.476;11.016;2022-08-18T13:33:36;4.07;;;3.78;;
21299;SDS011;10809;49.476;11.016;2022-08-18T13:36:06;4.50;;;3.75;;
21299;SDS011;10809;49.476;11.016;2022-08-18T13:38:38;3.97;;;3.65;;
21299;SDS011;10809;49.476;11.016;2022-08-18T13:41:11;4.95;;;4.55;;
21299;SDS011;10809;49.476;11.016;2022-08-18T13:43:42;3.90;;;3.60;;
21299;SDS011;10809;49.476;11.016;2022-08-18T13:46:15;5.13;;;3.45;;
21299;SDS011;10809;49.476;11.016;2022-08-18T13:48:47;3.78;;;3.58;;
21299;SDS011;10809;49.476;11.016;2022-08-18T13:51:20;3.53;;;3.28;;
21299;SDS011;10809;49.476;11.016;2022-08-18T13:53:53;3.50;;;3.20;;
21299;SDS011;10809;49.476;11.016;2022-08-18T13:56:24;4.00;;;3.60;;
21299;SDS011;10809;49.476;11.016;2022-08-18T13:58:54;3.72;;;3.42;;
21299;SDS011;10809;49.476;11.016;2022-08-18T14:01:25;4.00;;;3.70;;
21299;SDS011;10809;49.476;11.016;2022-08-18T14:03:55;3.85;;;3.55;;
21299;SDS011;10809;49.476;11.016;2022-08-18T14:06:25;3.17;;;2.97;;
21299;SDS011;10809;49.476;11.016;2022-08-18T14:08:56;4.85;;;3.55;;
21299;SDS011;10809;49.476;11.016;2022-08-18T14:11:27;4.53;;;3.15;;
21299;SDS011;10809;49.476;11.016;2022-08-18T14:14:00;3.55;;;3.33;;
21299;SDS011;10809;49.476;11.016;2022-08-18T14:16:31;4.00;;;3.60;;
21299;SDS011;10809;49.476;11.016;2022-08-18T14:19:02;3.55;;;3.35;;
21299;SDS011;10809;49.476;11.016;2022-08-18T14:21:57;4.18;;;3.55;;
21299;SDS011;10809;49.476;11.016;2022-08-18T14:24:48;3.90;;;3.33;;
21299;SDS011;10809;49.476;11.016;2022-08-18T14:27:37;3.65;;;3.45;;
21299;SDS011;10809;49.476;11.016;2022-08-18T14:30:08;3.92;;;3.65;;
21299;SDS011;10809;49.476;11.016;2022-08-18T14:32:41;4.20;;;3.90;;
21299;SDS011;10809;49.476;11.016;2022-08-18T14:35:12;4.38;;;3.58;;
21299;SDS011;10809;49.476;11.016;2022-08-18T14:37:44;5.22;;;4.68;;
21299;SDS011;10809;49.476;11.016;2022-08-18T14:40:15;5.50;;;4.18;;
21299;SDS011;10809;49.476;11.016;2022-08-18T14:42:49;4.32;;;4.03;;
21299;SDS011;10809;49.476;11.016;2022-08-18T14:45:19;4.05;;;3.67;;
21299;SDS011;10809;49.476;11.016;2022-08-18T14:47:50;3.85;;;3.60;;
21299;SDS011;10809;49.476;11.016;2022-08-18T14:50:22;3.95;;;3.58;;
21299;SDS011;10809;49.476;11.016;2022-08-18T14:52:53;6.03;;;3.38;;
21299;SDS011;10809;49.476;11.016;2022-08-18T14:55:24;3.97;;;3.67;;
21299;SDS011;10809;49.476;11.016;2022-08-18T14:57:54;3.70;;;3.50;;
21299;SDS011;10809;49.476;11.016;2022-08-18T15:00:25;4.90;;;4.05;;
21299;SDS011;10809;49.476;11.016;2022-08-18T15:02:56;3.80;;;3.50;;
21299;SDS011;10809;49.476;11.016;2022-08-18T15:05:27;4.53;;;3.85;;
21299;SDS011;10809;49.476;11.016;2022-08-18T15:08:02;7.78;;;3.83;;
21299;SDS011;10809;49.476;11.016;2022-08-18T15:10:34;5.05;;;3.78;;
21299;SDS011;10809;49.476;11.016;2022-08-18T15:13:04;5.50;;;3.40;;
21299;SDS011;10809;49.476;11.016;2022-08-18T15:15:34;4.15;;;3.85;;
21299;SDS011;10809;49.476;11.016;2022-08-18T15:18:05;3.90;;;3.60;;
21299;SDS011;10809;49.476;11.016;2022-08-18T15:20:36;5.53;;;3.88;;
21299;SDS011;10809;49.476;11.016;2022-08-18T15:23:28;3.78;;;3.47;;
21299;SDS011;10809;49.476;11.016;2022-08-18T15:26:21;4.03;;;3.33;;
21299;SDS011;10809;49.476;11.016;2022-08-18T15:28:54;3.60;;;3.30;;
21299;SDS011;10809;49.476;11.016;2022-08-18T15:31:25;3.75;;;3.47;;
21299;SDS011;10809;49.476;11.016;2022-08-18T15:33:56;4.10;;;3.70;;
21299;SDS011;10809;49.476;11.016;2022-08-18T15:36:27;6.80;;;4.35;;
21299;SDS011;10809;49.476;11.016;2022-08-18T15:38:58;5.45;;;3.65;;
21299;SDS011;10809;49.476;11.016;2022-08-18T15:41:30;4.55;;;3.70;;
21299;SDS011;10809;49.476;11.016;2022-08-18T15:44:06;4.18;;;3.65;;
21299;SDS011;10809;49.476;11.016;2022-08-18T15:46:37;6.35;;;3.58;;
21299;SDS011;10809;49.476;11.016;2022-08-18T15:49:08;4.30;;;3.90;;
21299;SDS011;10809;49.476;11.016;2022-08-18T15:51:39;4.60;;;4.20;;
21299;SDS011;10809;49.476;11.016;2022-08-18T15:54:11;3.80;;;3.50;;
21299;SDS011;10809;49.476;11.016;2022-08-18T15:56:41;4.60;;;4.13;;
21299;SDS011;10809;49.476;11.016;2022-08-18T15:59:12;4.80;;;4.40;;
21299;SDS011;10809;49.476;11.016;2022-08-18T16:01:42;6.03;;;3.63;;
21299;SDS011;10809;49.476;11.016;2022-08-18T16:04:12;4.00;;;3.47;;
21299;SDS011;10809;49.476;11.016;2022-08-18T16:06:44;3.97;;;3.67;;
21299;SDS011;10809;49.476;11.016;2022-08-18T16:09:16;4.18;;;3.78;;
21299;SDS011;10809;49.476;11.016;2022-08-18T16:11:47;3.65;;;3.40;;
21299;SDS011;10809;49.476;11.016;2022-08-18T16:14:17;4.50;;;3.47;;
21299;SDS011;10809;49.476;11.016;2022-08-18T16:16:48;3.97;;;3.67;;
21299;SDS011;10809;49.476;11.016;2022-08-18T16:19:21;4.55;;;4.05;;
21299;SDS011;10809;49.476;11.016;2022-08-18T16:22:00;3.70;;;3.40;;
21299;SDS011;10809;49.476;11.016;2022-08-18T16:24:35;4.35;;;3.92;;
21299;SDS011;10809;49.476;11.016;2022-08-18T16:27:05;4.15;;;3.85;;
21299;SDS011;10809;49.476;11.016;2022-08-18T16:29:37;4.80;;;3.58;;
21299;SDS011;10809;49.476;11.016;2022-08-18T16:32:08;5.13;;;4.20;;
21299;SDS011;10809;49.476;11.016;2022-08-18T16:34:38;3.95;;;3.65;;
21299;SDS011;10809;49.476;11.016;2022-08-18T16:37:10;3.55;;;3.25;;
21299;SDS011;10809;49.476;11.016;2022-08-18T16:39:40;5.53;;;3.90;;
21299;SDS011;10809;49.476;11.016;2022-08-18T16:42:11;4.28;;;3.55;;
21299;SDS011;10809;49.476;11.016;2022-08-18T16:44:41;4.28;;;3.60;;
21299;SDS011;10809;49.476;11.016;2022-08-18T16:47:12;4.32;;;3.97;;
21299;SDS011;10809;49.476;11.016;2022-08-18T16:49:43;4.95;;;3.80;;
21299;SDS011;10809;49.476;11.016;2022-08-18T16:52:34;4.18;;;3.72;;
21299;SDS011;10809;49.476;11.016;2022-08-18T16:55:05;4.72;;;3.78;;
21299;SDS011;10809;49.476;11.016;2022-08-18T16:57:37;4.00;;;3.63;;
21299;SDS011;10809;49.476;11.016;2022-08-18T17:00:36;4.38;;;4.07;;
21299;SDS011;10809;49.476;11.016;2022-08-18T17:03:25;4.10;;;3.65;;
21299;SDS011;10809;49.476;11.016;2022-08-18T17:06:16;3.88;;;3.58;;
21299;SDS011;10809;49.476;11.016;2022-08-18T17:08:48;8.57;;;3.58;;
21299;SDS011;10809;49.476;11.016;2022-08-18T17:11:18;4.57;;;3.83;;
21299;SDS011;10809;49.476;11.016;2022-08-18T17:13:49;4.38;;;3.60;;
21299;SDS011;10809;49.476;11.016;2022-08-18T17:16:20;3.55;;;3.35;;
21299;SDS011;10809;49.476;11.016;2022-08-18T17:18:53;4.22;;;3.92;;
21299;SDS011;10809;49.476;11.016;2022-08-18T17:21:27;4.30;;;3.97;;
21299;SDS011;10809;49.476;11.016;2022-08-18T17:23:59;4.90;;;4.38;;
21299;SDS011;10809;49.476;11.016;2022-08-18T17:26:38;3.88;;;3.58;;
21299;SDS011;10809;49.476;11.016;2022-08-18T17:29:27;4.22;;;3.88;;
21299;SDS011;10809;49.476;11.016;2022-08-18T17:32:12;4.35;;;3.95;;
21299;SDS011;10809;49.476;11.016;2022-08-18T17:34:50;4.63;;;4.05;;
21299;SDS011;10809;49.476;11.016;2022-08-18T17:37:27;4.43;;;4.03;;